Weather History for KAXA - January, 2013

Change the Weather History Date:

Friday, January 25, 2013

  Actual Average (KEST) Record (KEST)
Temperature  
Mean Temperature 18 °F 16 °F  
Max Temperature 30 °F 25 °F - ()
Min Temperature 5 °F 7 °F - ()
Degree Days  
Heating Degree Days 48 49  
Month to date heating degree days 1238  
Since 1 July heating degree days 4381  
Cooling Degree Days 0 0  
Month to date cooling degree days 0  
Year to date cooling degree days 0  
Moisture  
Dew Point 6 °F    
Average Humidity 63    
Maximum Humidity 80    
Minimum Humidity 46    
Precipitation  
Precipitation 0.00 in 0.02 in - ()
Month to date precipitation 0.34  
Sea Level Pressure  
Sea Level Pressure 30.11 in    
Wind  
Wind Speed 14 mph (WNW)    
Max Wind Speed 28 mph    
Max Gust Speed 32 mph    
Visibility 10 miles    
Events Snow    
T = Trace of Precipitation, MM = Missing Value Source: NWS Daily Summary

Daily Weather History Graph

Daily Weather History Graph

Search for Another Location

Airport or City:

Trip Planner

Search our weather history database for the weather conditions in past years. The results will help you decide how hot, cold, wet, or windy it might be!

Date:

Astronomy

Jan. 25, 2013 Rise Set
Actual Time 7:38 AM CST 5:20 PM CST
Civil Twilight 7:08 AM CST 5:51 PM CST
Nautical Twilight 6:33 AM CST 6:25 PM CST
Astronomical Twilight 6:00 AM CST 6:59 PM CST
Moon 4:18 PM CST (1/25) 6:19 AM CST (1/25)
Length of Visible Light 10h 43m
Length of Day
9h 41m
Waxing Gibbous, 98% of the Moon is Illuminated
Jan 25
Waxing Gibbous
Jan 26
Full
Feb 3
Last Quarter
Feb 10
New
Feb 17
First Quarter

Hourly Weather History & Observations

Time (CST) Temp. Windchill Dew Point Humidity Pressure Visibility Wind Dir Wind Speed Gust Speed Precip Events Conditions
12:15 AM 17.6 °F 3.7 °F 3.2 °F 53% 30.11 in 10.0 mi South 13.8 mph 20.7 mph N/A Snow Light Snow
12:35 AM 17.6 °F 1.3 °F 3.2 °F 53% 30.09 in 10.0 mi South 19.6 mph - N/A   Overcast
12:55 AM 17.6 °F 2.7 °F 3.2 °F 53% 30.10 in 9.0 mi SSW 16.1 mph - N/A Snow Light Snow
1:15 AM 17.6 °F 5.0 °F 3.2 °F 53% 30.11 in 10.0 mi SSW 11.5 mph 17.3 mph N/A   Overcast
1:35 AM 17.6 °F 5.7 °F 3.2 °F 53% 30.11 in 10.0 mi SW 10.4 mph - N/A   Overcast
1:55 AM 17.6 °F 6.4 °F 3.2 °F 53% 30.11 in 10.0 mi SSW 9.2 mph - N/A   Overcast
2:15 AM 17.6 °F 7.3 °F 3.2 °F 53% 30.11 in 10.0 mi SW 8.1 mph - N/A   Mostly Cloudy
2:35 AM 17.6 °F 5.0 °F 5.0 °F 58% 30.08 in 10.0 mi SSW 11.5 mph - N/A Snow Light Snow
2:55 AM 15.8 °F 2.7 °F 3.2 °F 58% 30.06 in 10.0 mi SSW 11.5 mph - N/A Snow Light Snow
3:15 AM 15.8 °F 2.1 °F 3.2 °F 58% 30.05 in 10.0 mi SSW 12.7 mph - N/A Snow Light Snow
3:35 AM 14.0 °F 2.0 °F 3.2 °F 62% 30.05 in 10.0 mi SSW 9.2 mph - N/A   Clear
3:55 AM 14.0 °F 0.5 °F 3.2 °F 62% 30.04 in 10.0 mi SSW 11.5 mph - N/A   Clear
4:15 AM 14.0 °F 1.2 °F 3.2 °F 62% 30.04 in 10.0 mi SSW 10.4 mph - N/A Snow Light Snow
4:35 AM 12.2 °F -0.2 °F 3.2 °F 67% 30.04 in 10.0 mi SSW 9.2 mph - N/A   Clear
4:55 AM 12.2 °F -1.0 °F 3.2 °F 67% 30.03 in 10.0 mi SSW 10.4 mph - N/A   Clear
5:15 AM 12.2 °F -1.0 °F 3.2 °F 67% 30.02 in 10.0 mi SSW 10.4 mph - N/A   Clear
5:35 AM 12.2 °F -1.0 °F 3.2 °F 67% 30.01 in 10.0 mi SSW 10.4 mph - N/A Snow Light Snow
6:15 AM 10.4 °F -1.5 °F 3.2 °F 73% 30.01 in 10.0 mi SSW 8.1 mph - N/A   Clear
6:35 AM 10.4 °F -3.3 °F 5.0 °F 79% 30.01 in 10.0 mi SSW 10.4 mph - N/A   Clear
6:55 AM 10.4 °F -4.1 °F 5.0 °F 79% 30.01 in 10.0 mi SW 11.5 mph - N/A Snow Light Snow
7:35 AM 10.4 °F -4.1 °F 5.0 °F 79% 30.01 in 10.0 mi WSW 11.5 mph - N/A   Clear
7:55 AM 12.2 °F -2.5 °F 5.0 °F 73% 30.01 in 10.0 mi WSW 12.7 mph - N/A   Mostly Cloudy
8:15 AM 14.0 °F 2.0 °F 6.8 °F 73% 30.02 in 10.0 mi West 9.2 mph - N/A   Overcast
8:35 AM 15.8 °F 2.1 °F 6.8 °F 68% 30.03 in 10.0 mi West 12.7 mph - N/A   Overcast
8:55 AM 15.8 °F 1.4 °F 8.6 °F 73% 30.03 in 10.0 mi West 13.8 mph - N/A   Overcast
9:15 AM 17.6 °F 3.7 °F 10.4 °F 73% 30.04 in 10.0 mi West 13.8 mph - N/A   Overcast
9:35 AM 19.4 °F 7.2 °F 14.0 °F 80% 30.04 in 10.0 mi WNW 11.5 mph 24.2 mph N/A   Overcast
9:55 AM 21.2 °F 8.9 °F 14.0 °F 74% 30.04 in 10.0 mi West 12.7 mph - N/A   Overcast
10:15 AM 23.0 °F 11.1 °F 15.8 °F 74% 30.04 in 10.0 mi West 12.7 mph - N/A   Overcast
10:35 AM 23.0 °F 10.1 °F 15.8 °F 74% 30.05 in 10.0 mi NW 15.0 mph - N/A   Overcast
10:55 AM 26.6 °F 13.1 °F 17.6 °F 69% 30.05 in 10.0 mi NW 19.6 mph 29.9 mph N/A   Overcast
11:15 AM 26.6 °F 12.4 °F 17.6 °F 69% 30.06 in 10.0 mi NW 21.9 mph 28.8 mph N/A Snow Light Snow
11:35 AM 26.6 °F 12.4 °F 17.6 °F 69% 30.05 in 10.0 mi NW 21.9 mph 29.9 mph N/A Snow Light Snow
11:55 AM 26.6 °F 10.8 °F 17.6 °F 69% 30.06 in 10.0 mi NW 27.6 mph - N/A Snow Light Snow
12:15 PM 28.4 °F 14.4 °F 17.6 °F 64% 30.05 in 10.0 mi NW 23.0 mph 32.2 mph N/A Snow Light Snow
12:35 PM 30.2 °F 16.2 °F 19.4 °F 64% 30.06 in 10.0 mi NW 25.3 mph 31.1 mph N/A Snow Light Snow
12:55 PM 28.4 °F 14.1 °F 19.4 °F 69% 30.06 in 10.0 mi NW 24.2 mph 32.2 mph N/A Snow Light Snow
1:15 PM 30.2 °F 16.8 °F 17.6 °F 60% 30.05 in 10.0 mi NW 23.0 mph 31.1 mph N/A Snow Light Snow
1:35 PM 28.4 °F 16.2 °F 17.6 °F 64% 30.06 in 10.0 mi NW 17.3 mph 28.8 mph N/A Snow Light Snow
1:55 PM 28.4 °F 15.8 °F 17.6 °F 64% 30.06 in 10.0 mi NW 18.4 mph 27.6 mph N/A Snow Light Snow
2:15 PM 26.6 °F 12.4 °F 15.8 °F 64% 30.07 in 10.0 mi NNW 21.9 mph 32.2 mph N/A Snow Light Snow
2:35 PM 26.6 °F 12.7 °F 14.0 °F 59% 30.07 in 10.0 mi NNW 20.7 mph 27.6 mph N/A Snow Light Snow
2:55 PM 24.8 °F 10.7 °F 8.6 °F 50% 30.09 in 9.0 mi North 19.6 mph 27.6 mph N/A Snow Light Snow
3:15 PM 23.0 °F 9.2 °F 6.8 °F 50% 30.09 in 10.0 mi NNW 17.3 mph 27.6 mph N/A Snow Light Snow
3:35 PM 23.0 °F 8.0 °F 5.0 °F 46% 30.10 in 10.0 mi North 20.7 mph 28.8 mph N/A Snow Light Snow
3:55 PM 21.2 °F 6.0 °F 5.0 °F 50% 30.10 in 10.0 mi NNW 19.6 mph 28.8 mph N/A Snow Light Snow
4:15 PM 21.2 °F 6.0 °F 3.2 °F 46% 30.11 in 10.0 mi NNW 19.6 mph 26.5 mph N/A Snow Light Snow
4:35 PM 19.4 °F 3.6 °F 3.2 °F 49% 30.12 in 10.0 mi North 19.6 mph - N/A Snow Light Snow
4:55 PM 17.6 °F 2.2 °F 1.4 °F 49% 30.13 in 10.0 mi NNW 17.3 mph - N/A Snow Light Snow
5:15 PM 17.6 °F 5.0 °F 1.4 °F 49% 30.14 in 10.0 mi NNW 11.5 mph 20.7 mph N/A   Clear
5:35 PM 15.8 °F 0.9 °F 1.4 °F 53% 30.15 in 10.0 mi North 15.0 mph 20.7 mph N/A   Clear
5:55 PM 14.0 °F -0.8 °F -0.4 °F 53% 30.15 in 10.0 mi North 13.8 mph 20.7 mph N/A   Clear
6:15 PM 14.0 °F -2.0 °F -0.4 °F 53% 30.17 in 10.0 mi NNW 16.1 mph - N/A   Clear
6:35 PM 12.2 °F -4.8 °F -0.4 °F 57% 30.18 in 10.0 mi NNW 17.3 mph - N/A   Clear
6:55 PM 12.2 °F -3.1 °F -2.2 °F 53% 30.18 in 10.0 mi NNW 13.8 mph 19.6 mph N/A   Clear
7:15 PM 10.4 °F -5.4 °F -2.2 °F 57% 30.20 in 10.0 mi NNW 13.8 mph - N/A   Clear
7:35 PM 10.4 °F -4.8 °F -2.2 °F 57% 30.20 in 10.0 mi NNW 12.7 mph 19.6 mph N/A   Clear
7:55 PM 10.4 °F -4.1 °F -0.4 °F 62% 30.20 in 10.0 mi NNW 11.5 mph 19.6 mph N/A   Clear
8:15 PM 8.6 °F -4.7 °F -0.4 °F 67% 30.22 in 10.0 mi NNW 9.2 mph 15.0 mph N/A   Clear
8:35 PM 8.6 °F -4.7 °F -0.4 °F 67% 30.22 in 10.0 mi North 9.2 mph - N/A   Clear
8:55 PM 8.6 °F -3.7 °F -0.4 °F 67% 30.22 in 10.0 mi North 8.1 mph 15.0 mph N/A   Clear
9:15 PM 6.8 °F -8.6 °F -0.4 °F 72% 30.23 in 10.0 mi NNW 11.5 mph - N/A   Clear
9:35 PM 6.8 °F -6.9 °F -2.2 °F 67% 30.24 in 10.0 mi North 9.2 mph - N/A   Clear
9:55 PM 6.8 °F -5.9 °F -2.2 °F 67% 30.25 in 10.0 mi NNW 8.1 mph - N/A   Clear
10:15 PM 6.8 °F -7.8 °F -2.2 °F 67% 30.25 in 10.0 mi North 10.4 mph - N/A   Clear
10:35 PM 6.8 °F -5.9 °F -2.2 °F 67% 30.26 in 10.0 mi North 8.1 mph - N/A   Clear
10:55 PM 5.0 °F -6.9 °F -2.2 °F 72% 30.26 in 10.0 mi North 6.9 mph - N/A   Clear
11:15 PM 5.0 °F -6.9 °F -2.2 °F 72% 30.26 in 10.0 mi North 6.9 mph - N/A   Clear
11:35 PM 5.0 °F -5.6 °F -2.2 °F 72% 30.27 in 10.0 mi NNW 5.8 mph - N/A   Clear
11:55 PM 5.0 °F -5.6 °F -2.2 °F 72% 30.26 in 10.0 mi North 5.8 mph - N/A   Clear